Time;durP1;ratioP1;P1;durP2;ratioP2;P2;SDS_P1;SDS_P2;PMS_P1;PMS_P2;Temp;Humidity;BMP_temperature;BMP_pressure;BME280_temperature;BME280_humidity;BME280_pressure;Samples;Min_cycle;Max_cycle;Signal;HPM_P1;HPM_P2
2023/10/09 00:01:01;;;;;;;4.70;1.92;;;12.10;99.90;;;;;;5121339;27;20037;-84
2023/10/09 00:03:27;;;;;;;2.17;1.60;;;12.10;99.90;;;;;;5119462;27;20023;-84
2023/10/09 00:05:53;;;;;;;3.33;1.65;;;12.10;99.90;;;;;;5120620;27;20444;-84
2023/10/09 00:08:32;;;;;;;5.15;1.80;;;12.10;99.90;;;;;;5118816;27;20118;-84
2023/10/09 00:11:13;;;;;;;4.47;2.20;;;12.10;99.90;;;;;;5121186;27;20103;-84
2023/10/09 00:13:50;;;;;;;3.05;1.80;;;12.10;99.90;;;;;;5122085;27;20026;-84
2023/10/09 00:16:34;;;;;;;2.97;1.77;;;12.10;99.90;;;;;;5127449;27;20080;-84
2023/10/09 00:19:19;;;;;;;13.40;2.33;;;12.10;99.90;;;;;;5123852;27;20022;-84
2023/10/09 00:21:49;;;;;;;4.43;2.00;;;12.10;99.90;;;;;;5120406;27;20422;-84
2023/10/09 00:24:23;;;;;;;4.55;2.00;;;12.00;99.90;;;;;;5118062;27;20080;-84
2023/10/09 00:26:51;;;;;;;5.05;2.03;;;12.00;99.90;;;;;;5118961;27;20510;-83
2023/10/09 00:29:23;;;;;;;3.17;2.20;;;12.00;99.90;;;;;;5118943;27;20045;-84
2023/10/09 00:32:16;;;;;;;2.97;1.60;;;12.00;99.90;;;;;;5119083;27;20050;-84
2023/10/09 00:34:42;;;;;;;6.72;1.80;;;12.00;99.90;;;;;;5120010;27;20472;-84
2023/10/09 00:37:16;;;;;;;5.78;2.10;;;11.90;99.90;;;;;;5115933;27;20035;-84
2023/10/09 00:39:48;;;;;;;6.07;1.70;;;12.00;99.90;;;;;;5121964;27;20023;-84
2023/10/09 00:42:22;;;;;;;3.63;1.65;;;11.90;99.90;;;;;;5123365;27;20027;-84
2023/10/09 00:44:49;;;;;;;2.97;1.80;;;11.90;99.90;;;;;;5119063;27;20023;-84
2023/10/09 00:47:21;;;;;;;2.50;1.90;;;11.90;99.90;;;;;;5110559;27;20506;-84
2023/10/09 00:50:01;;;;;;;3.00;1.70;;;11.90;99.90;;;;;;5121767;27;20112;-84
2023/10/09 00:52:39;;;;;;;3.17;1.55;;;11.90;99.90;;;;;;5130069;27;20034;-85
2023/10/09 00:55:21;;;;;;;5.38;1.80;;;11.90;99.90;;;;;;5121885;27;20022;-85
2023/10/09 00:57:57;;;;;;;5.82;2.33;;;11.90;99.90;;;;;;5112722;27;20052;-84
2023/10/09 01:00:45;;;;;;;3.30;1.85;;;11.80;99.90;;;;;;5125033;27;20023;-84
2023/10/09 01:03:22;;;;;;;5.18;1.95;;;11.80;99.90;;;;;;5124996;27;20322;-84
2023/10/09 01:06:16;;;;;;;4.28;2.25;;;11.80;99.90;;;;;;5121230;27;20031;-84
2023/10/09 01:11:14;;;;;;;3.00;1.55;;;11.80;99.90;;;;;;5120377;27;20046;-83
2023/10/09 01:14:26;;;;;;;4.25;1.92;;;11.80;99.90;;;;;;5121189;27;20051;-83
2023/10/09 01:16:31;;;;;;;6.15;2.38;;;11.80;99.90;;;;;;5108794;27;20031;-85
2023/10/09 01:19:00;;;;;;;6.38;3.03;;;11.80;99.90;;;;;;5125514;27;20167;-85
2023/10/09 01:21:47;;;;;;;10.95;3.97;;;11.90;99.90;;;;;;5118766;27;20303;-84
2023/10/09 01:24:11;;;;;;;10.18;3.80;;;11.90;99.90;;;;;;5120406;27;20035;-84
2023/10/09 01:26:44;;;;;;;15.68;5.63;;;11.90;99.90;;;;;;5124348;27;20071;-85
2023/10/09 01:29:21;;;;;;;14.35;4.82;;;11.90;99.90;;;;;;5119657;27;20034;-85
2023/10/09 01:31:55;;;;;;;8.25;4.47;;;12.10;99.90;;;;;;5116743;27;20047;-83
2023/10/09 01:34:41;;;;;;;21.45;7.22;;;12.00;99.90;;;;;;5124454;27;20019;-85
2023/10/09 01:37:18;;;;;;;16.90;7.25;;;12.00;99.90;;;;;;5118454;27;20031;-85
2023/10/09 01:39:51;;;;;;;33.30;9.90;;;12.10;99.90;;;;;;5119318;27;20019;-85
2023/10/09 01:44:58;;;;;;;33.55;10.32;;;12.20;99.90;;;;;;5118870;27;20023;-84
2023/10/09 01:47:25;;;;;;;40.47;12.32;;;12.20;99.90;;;;;;5122609;27;20027;-84
2023/10/09 01:49:57;;;;;;;34.92;11.00;;;12.30;99.90;;;;;;5120280;27;20138;-83
2023/10/09 01:52:27;;;;;;;43.83;12.65;;;12.30;99.90;;;;;;5116045;27;20032;-83
2023/10/09 01:55:03;;;;;;;58.22;14.73;;;12.40;99.90;;;;;;5117615;27;20061;-86
2023/10/09 01:57:30;;;;;;;43.65;12.32;;;12.60;99.90;;;;;;5123134;27;20031;-84
2023/10/09 02:00:05;;;;;;;37.35;11.38;;;12.80;99.90;;;;;;5119270;27;20417;-84
2023/10/09 02:02:33;;;;;;;43.75;10.93;;;12.80;99.90;;;;;;5119636;27;20091;-84
2023/10/09 02:05:10;;;;;;;52.50;12.45;;;12.90;99.90;;;;;;5124549;27;20035;-84
2023/10/09 02:07:44;;;;;;;35.00;11.18;;;13.00;99.90;;;;;;5123648;27;20023;-83
2023/10/09 02:10:31;;;;;;;42.70;11.95;;;13.10;99.90;;;;;;5123187;27;20067;-84
2023/10/09 02:13:06;;;;;;;31.13;11.02;;;13.10;99.90;;;;;;5119954;27;20039;-86
2023/10/09 02:23:46;;;;;;;29.08;10.75;;;13.30;99.90;;;;;;5124623;27;20030;-84
2023/10/09 02:28:52;;;;;;;32.53;13.27;;;13.50;99.90;;;;;;5122789;27;20292;-84
2023/10/09 02:31:22;;;;;;;44.25;14.07;;;13.60;99.90;;;;;;5123103;27;20490;-84
2023/10/09 02:33:54;;;;;;;27.17;11.40;;;13.70;99.90;;;;;;5116757;27;20675;-84
2023/10/09 02:36:24;;;;;;;41.88;14.18;;;13.70;99.90;;;;;;5122592;27;20045;-83
2023/10/09 02:38:56;;;;;;;41.28;14.48;;;13.80;99.90;;;;;;5115545;27;20054;-85
2023/10/09 02:41:28;;;;;;;34.72;14.40;;;14.00;99.90;;;;;;5117143;27;20023;-85
2023/10/09 02:43:58;;;;;;;49.35;14.90;;;14.00;99.90;;;;;;5114375;27;20027;-86
2023/10/09 02:46:31;;;;;;;42.33;16.08;;;14.10;99.90;;;;;;5116186;27;20365;-85
2023/10/09 02:49:15;;;;;;;39.33;15.90;;;14.20;99.90;;;;;;5118080;27;20054;-85
2023/10/09 02:51:47;;;;;;;38.20;14.93;;;14.30;99.90;;;;;;5111761;27;20604;-84
2023/10/09 02:56:54;;;;;;;40.10;16.60;;;14.60;99.90;;;;;;5122383;27;20492;-86
2023/10/09 02:59:24;;;;;;;35.65;14.10;;;14.70;99.90;;;;;;5118485;27;20839;-85
2023/10/09 03:01:53;;;;;;;37.75;14.68;;;14.70;99.90;;;;;;5116856;27;21457;-85
2023/10/09 03:04:19;;;;;;;32.72;13.80;;;14.70;99.90;;;;;;5119052;27;20057;-85
2023/10/09 03:07:07;;;;;;;45.03;14.95;;;14.70;99.90;;;;;;5121641;27;20058;-86
2023/10/09 03:09:32;;;;;;;46.15;17.77;;;14.70;99.90;;;;;;5119702;27;20064;-85
2023/10/09 03:12:03;;;;;;;34.35;15.32;;;14.70;99.90;;;;;;5122337;28;20039;-84
2023/10/09 03:14:30;;;;;;;32.17;14.48;;;14.80;99.90;;;;;;5111236;27;20390;-85
2023/10/09 03:16:56;;;;;;;33.40;13.45;;;14.80;99.90;;;;;;5118275;27;20035;-84
2023/10/09 03:19:25;;;;;;;36.85;13.73;;;14.80;99.90;;;;;;5118860;28;20327;-84
2023/10/09 03:21:50;;;;;;;39.90;13.73;;;14.70;99.90;;;;;;5120057;27;20483;-85
2023/10/09 03:24:19;;;;;;;28.23;13.18;;;14.70;99.90;;;;;;5121608;27;20034;-86
2023/10/09 03:26:51;;;;;;;29.58;12.90;;;14.70;99.90;;;;;;5123032;27;20431;-84
2023/10/09 03:29:20;;;;;;;36.65;13.23;;;14.70;99.90;;;;;;5120097;27;20027;-85
2023/10/09 03:31:46;;;;;;;30.48;13.45;;;14.60;99.90;;;;;;5115600;27;20118;-84
2023/10/09 03:34:12;;;;;;;33.00;12.27;;;14.60;99.90;;;;;;5113610;27;20463;-84
2023/10/09 03:36:38;;;;;;;22.20;10.25;;;14.60;99.90;;;;;;5120522;28;20027;-84
2023/10/09 03:42:05;;;;;;;28.55;12.38;;;14.50;99.90;;;;;;5069825;27;20072;-84
2023/10/09 03:44:35;;;;;;;25.98;11.95;;;14.50;99.90;;;;;;5108977;27;20998;-84
2023/10/09 03:47:05;;;;;;;25.65;11.25;;;14.40;99.90;;;;;;5118259;27;20035;-85
2023/10/09 03:49:31;;;;;;;37.25;12.98;;;14.30;99.90;;;;;;5116871;27;20177;-84
2023/10/09 03:52:02;;;;;;;40.13;14.18;;;14.30;99.90;;;;;;5121352;27;20542;-85
2023/10/09 03:54:30;;;;;;;19.60;10.68;;;14.30;99.90;;;;;;5119768;27;20019;-84
2023/10/09 03:56:59;;;;;;;19.60;9.52;;;14.20;99.90;;;;;;5122395;27;20027;-83
2023/10/09 03:59:30;;;;;;;22.75;10.07;;;14.20;99.90;;;;;;5122208;27;20077;-84
2023/10/09 04:01:58;;;;;;;23.40;11.95;;;14.20;99.90;;;;;;5106394;28;20023;-85
2023/10/09 04:04:24;;;;;;;30.13;12.55;;;14.20;99.90;;;;;;5113478;27;20024;-84
2023/10/09 04:06:53;;;;;;;24.38;11.38;;;14.10;99.90;;;;;;5118443;27;20227;-84
2023/10/09 04:14:57;;;;;;;18.70;9.32;;;14.10;99.90;;;;;;5122318;27;20128;-84
2023/10/09 04:21:16;;;;;;;28.27;13.30;;;14.10;99.90;;;;;;5120099;27;20043;-84
2023/10/09 04:22:42;;;;;;;24.95;11.18;;;14.10;99.90;;;;;;5120735;27;20181;-85
2023/10/09 04:25:14;;;;;;;22.67;11.73;;;14.00;99.90;;;;;;5121251;27;20056;-84
2023/10/09 04:27:41;;;;;;;24.85;12.07;;;14.00;99.90;;;;;;5125209;27;20420;-84
2023/10/09 04:30:15;;;;;;;28.88;13.20;;;13.90;99.90;;;;;;5124364;27;20046;-85
2023/10/09 04:32:45;;;;;;;30.02;13.10;;;13.90;99.90;;;;;;5126219;27;20027;-85
2023/10/09 04:35:24;;;;;;;22.27;10.63;;;14.00;99.90;;;;;;5118375;27;20050;-84
2023/10/09 04:38:03;;;;;;;27.70;13.63;;;13.90;99.90;;;;;;5120290;27;20057;-85
2023/10/09 04:40:48;;;;;;;25.63;12.00;;;13.90;99.90;;;;;;5123251;27;20072;-85
2023/10/09 04:43:20;;;;;;;32.83;13.70;;;13.90;99.90;;;;;;5117501;27;20043;-84
2023/10/09 04:48:33;;;;;;;20.52;10.60;;;13.90;99.90;;;;;;5123611;27;20490;-84
2023/10/09 04:53:47;;;;;;;23.67;11.07;;;13.90;99.90;;;;;;5125278;27;20104;-82
2023/10/09 04:56:15;;;;;;;20.23;11.02;;;13.90;99.90;;;;;;5120214;27;20146;-83
2023/10/09 04:58:41;;;;;;;15.13;8.73;;;13.80;99.90;;;;;;5120350;27;20055;-84
2023/10/09 05:01:21;;;;;;;26.70;12.02;;;13.80;99.90;;;;;;5123214;27;20103;-85
2023/10/09 05:03:56;;;;;;;20.88;10.18;;;13.80;99.90;;;;;;5121188;27;20089;-84
2023/10/09 05:09:13;;;;;;;21.20;10.15;;;13.80;99.90;;;;;;5117960;27;20406;-85
2023/10/09 05:14:19;;;;;;;19.40;9.35;;;13.70;99.90;;;;;;5125050;27;20031;-85
2023/10/09 05:16:54;;;;;;;17.88;10.20;;;13.70;99.90;;;;;;5125259;27;20038;-84
2023/10/09 05:22:29;;;;;;;15.57;8.57;;;13.60;99.90;;;;;;5122940;27;20031;-84
2023/10/09 05:24:58;;;;;;;17.80;9.43;;;13.60;99.90;;;;;;5115423;27;20024;-84
2023/10/09 05:27:45;;;;;;;23.10;9.18;;;13.60;99.90;;;;;;5119393;27;20031;-84
2023/10/09 05:30:24;;;;;;;24.50;10.50;;;13.60;99.90;;;;;;5120733;27;20039;-84
2023/10/09 05:32:55;;;;;;;21.77;9.52;;;13.60;99.90;;;;;;5120794;27;20077;-85
2023/10/09 05:35:29;;;;;;;27.95;12.68;;;13.60;99.90;;;;;;5128063;27;20098;-86
2023/10/09 05:38:03;;;;;;;20.42;11.45;;;13.60;99.90;;;;;;5119463;27;20034;-86
2023/10/09 05:40:31;;;;;;;21.77;10.57;;;13.50;99.90;;;;;;5127546;27;20023;-85
2023/10/09 05:42:59;;;;;;;22.45;11.75;;;13.50;99.90;;;;;;5124086;27;20027;-85
2023/10/09 05:51:10;;;;;;;18.02;9.52;;;13.40;99.90;;;;;;5110877;27;20415;-86
2023/10/09 06:04:49;;;;;;;18.63;10.60;;;13.40;99.90;;;;;;5124264;27;20132;-85
2023/10/09 06:07:13;;;;;;;22.80;11.30;;;13.40;99.90;;;;;;5130703;27;20430;-85
2023/10/09 06:09:55;;;;;;;18.60;10.95;;;13.40;99.90;;;;;;5103672;27;20387;-86
2023/10/09 06:12:34;;;;;;;23.52;11.63;;;13.40;99.90;;;;;;5118755;27;20048;-85
2023/10/09 06:17:52;;;;;;;21.42;12.65;;;13.40;99.90;;;;;;5097523;27;20077;-85
2023/10/09 06:21:05;;;;;;;21.60;11.60;;;13.40;99.90;;;;;;5117677;27;20073;-86
2023/10/09 06:23:50;;;;;;;29.67;14.07;;;13.50;99.90;;;;;;5111947;27;20030;-88
2023/10/09 06:26:23;;;;;;;28.98;12.15;;;13.50;99.90;;;;;;5116950;27;20118;-88
2023/10/09 06:29:13;;;;;;;21.90;10.70;;;13.50;99.90;;;;;;5120562;27;20407;-87
2023/10/09 06:31:57;;;;;;;32.28;13.80;;;13.50;99.90;;;;;;5113179;27;20039;-89
2023/10/09 06:34:24;;;;;;;23.55;11.40;;;13.50;99.90;;;;;;5122460;27;20023;-89
2023/10/09 06:36:53;;;;;;;29.85;11.75;;;13.60;99.90;;;;;;5122568;27;20041;-88
2023/10/09 06:42:16;;;;;;;29.33;11.38;;;13.60;99.90;;;;;;5124108;27;20060;-90
2023/10/09 06:44:53;;;;;;;17.27;9.73;;;13.60;99.90;;;;;;5125482;27;20019;-87
2023/10/09 06:47:23;;;;;;;21.65;9.45;;;13.70;99.90;;;;;;5125249;27;20076;-87
2023/10/09 06:52:57;;;;;;;22.02;10.40;;;13.70;99.90;;;;;;5120384;27;20126;-88
2023/10/09 06:55:35;;;;;;;21.40;10.90;;;13.70;99.90;;;;;;5124270;27;20027;-88
2023/10/09 06:58:01;;;;;;;21.08;11.73;;;13.70;99.90;;;;;;5123656;27;20041;-87
2023/10/09 07:03:17;;;;;;;29.77;12.13;;;13.80;99.90;;;;;;5124492;28;20072;-89
2023/10/09 07:06:09;;;;;;;28.23;11.32;;;13.80;99.90;;;;;;5124855;28;20033;-90
2023/10/09 07:08:38;;;;;;;29.25;12.20;;;13.80;99.90;;;;;;5121333;28;20035;-91
2023/10/09 07:11:57;;;;;;;26.08;11.60;;;13.90;99.90;;;;;;5122245;28;20039;-93
2023/10/09 07:16:57;;;;;;;24.92;10.80;;;14.00;99.90;;;;;;5116706;28;20114;-92
2023/10/09 07:19:43;;;;;;;27.70;11.52;;;14.10;99.90;;;;;;5121185;28;20034;-90
2023/10/09 07:25:15;;;;;;;25.35;10.07;;;14.10;99.90;;;;;;5103379;28;19907;-90
2023/10/09 07:27:43;;;;;;;28.77;12.02;;;14.20;99.90;;;;;;5125417;27;20046;-96
2023/10/09 07:35:47;;;;;;;22.50;10.82;;;14.20;99.90;;;;;;5124382;28;19956;-95
2023/10/09 07:38:19;;;;;;;17.50;9.63;;;14.20;99.90;;;;;;5125729;27;20027;-93
2023/10/09 07:40:59;;;;;;;22.13;10.55;;;14.20;99.90;;;;;;5125354;28;20023;-89
2023/10/09 07:46:32;;;;;;;16.83;8.00;;;14.20;99.90;;;;;;5124146;28;20056;-94
2023/10/09 07:49:08;;;;;;;20.50;9.82;;;14.10;99.90;;;;;;5124804;27;20102;-94
2023/10/09 07:51:36;;;;;;;22.98;11.77;;;14.10;99.90;;;;;;5118708;27;20121;-93
2023/10/09 07:54:07;;;;;;;16.58;9.55;;;14.10;99.90;;;;;;5118803;27;20042;-93
2023/10/09 07:56:45;;;;;;;18.90;9.55;;;14.20;99.90;;;;;;5123564;27;20032;-93
2023/10/09 07:59:13;;;;;;;16.35;8.43;;;14.20;99.90;;;;;;5124208;27;20028;-93
2023/10/09 08:01:52;;;;;;;20.55;8.70;;;14.20;99.90;;;;;;5125952;27;20042;-93
2023/10/09 08:04:37;;;;;;;13.52;8.20;;;14.20;99.90;;;;;;5122503;27;20015;-92
2023/10/09 08:07:07;;;;;;;24.00;10.63;;;14.20;99.90;;;;;;5124400;27;20030;-96
2023/10/09 08:15:21;;;;;;;19.52;9.98;;;14.30;99.90;;;;;;5122065;27;20042;-95
2023/10/09 08:18:03;;;;;;;15.60;7.78;;;14.30;99.90;;;;;;5126546;27;20019;-95
2023/10/09 08:20:51;;;;;;;19.73;8.55;;;14.40;99.90;;;;;;5126838;27;20057;-95
2023/10/09 08:23:28;;;;;;;15.82;8.50;;;14.40;99.90;;;;;;5122778;27;20088;-92
2023/10/09 08:26:12;;;;;;;19.30;7.85;;;14.40;99.90;;;;;;5132766;27;20041;-94
2023/10/09 08:28:39;;;;;;;18.20;7.95;;;14.40;99.90;;;;;;5131366;27;20023;-90
2023/10/09 08:33:59;;;;;;;24.30;9.32;;;14.40;99.90;;;;;;5130344;27;20239;-87
2023/10/09 08:36:36;;;;;;;25.55;10.25;;;14.50;99.90;;;;;;5134381;27;20023;-94
2023/10/09 08:39:17;;;;;;;21.30;9.23;;;14.60;99.90;;;;;;5123929;27;20034;-95
2023/10/09 08:41:43;;;;;;;26.30;9.88;;;14.70;99.90;;;;;;5124795;27;20035;-90
2023/10/09 08:44:14;;;;;;;18.50;8.82;;;14.70;99.90;;;;;;5125103;27;20460;-94
2023/10/09 08:46:42;;;;;;;21.30;8.07;;;14.70;99.90;;;;;;5126771;27;20024;-94
2023/10/09 08:49:10;;;;;;;21.77;9.05;;;14.70;99.90;;;;;;5127708;27;20143;-95
2023/10/09 08:51:36;;;;;;;31.85;9.50;;;14.70;99.90;;;;;;5122134;27;20084;-89
2023/10/09 08:54:01;;;;;;;18.25;8.00;;;14.80;99.90;;;;;;5099786;27;20035;-92
2023/10/09 08:56:27;;;;;;;20.15;9.18;;;14.70;99.90;;;;;;5121611;27;20027;-86
2023/10/09 08:58:55;;;;;;;21.92;8.98;;;14.70;99.90;;;;;;5117334;27;20446;-89
2023/10/09 09:01:23;;;;;;;22.83;9.35;;;14.80;99.90;;;;;;5125737;27;20463;-93
2023/10/09 09:03:50;;;;;;;24.92;10.32;;;14.80;99.90;;;;;;5124636;27;20031;-91
2023/10/09 09:06:20;;;;;;;32.35;8.10;;;14.80;99.90;;;;;;5124887;27;20034;-88
2023/10/09 09:08:47;;;;;;;28.13;10.50;;;15.00;99.90;;;;;;5127096;27;20019;-88
2023/10/09 09:11:17;;;;;;;29.30;8.63;;;15.00;99.90;;;;;;5123052;27;20039;-85
2023/10/09 09:13:50;;;;;;;21.50;8.32;;;15.10;99.90;;;;;;5125674;27;20401;-94
2023/10/09 09:16:17;;;;;;;27.55;8.98;;;15.10;99.90;;;;;;5124458;27;20027;-84
2023/10/09 09:19:37;;;;;;;24.30;8.05;;;15.20;99.90;;;;;;5124819;27;20277;-93
2023/10/09 09:21:54;;;;;;;26.50;7.35;;;15.20;99.90;;;;;;5114676;27;20031;-89
2023/10/09 09:26:59;;;;;;;22.73;8.43;;;15.50;99.90;;;;;;5125611;27;20395;-82
2023/10/09 09:29:52;;;;;;;27.30;6.78;;;15.50;99.90;;;;;;5125585;27;20012;-91
2023/10/09 09:32:29;;;;;;;22.48;8.18;;;15.60;99.90;;;;;;5124961;27;20091;-88
2023/10/09 09:35:01;;;;;;;29.40;8.60;;;15.60;99.90;;;;;;5118336;27;20054;-88
2023/10/09 09:37:33;;;;;;;16.60;6.75;;;15.70;99.90;;;;;;5119835;27;20020;-87
2023/10/09 09:40:14;;;;;;;25.45;7.57;;;15.70;99.90;;;;;;5116427;27;20531;-86
2023/10/09 09:42:48;;;;;;;26.80;6.35;;;15.70;99.90;;;;;;5122461;27;20027;-89
2023/10/09 09:45:16;;;;;;;32.28;8.23;;;15.90;99.90;;;;;;5121870;27;20039;-87
2023/10/09 09:47:51;;;;;;;24.77;7.35;;;16.00;99.90;;;;;;5130053;27;20431;-91
2023/10/09 09:50:29;;;;;;;21.73;5.97;;;16.10;99.90;;;;;;5124684;27;20104;-93
2023/10/09 09:52:55;;;;;;;29.90;6.65;;;16.10;99.90;;;;;;5126475;27;20378;-91
2023/10/09 09:55:30;;;;;;;31.48;6.88;;;16.20;99.90;;;;;;5122912;27;20123;-93
2023/10/09 09:57:57;;;;;;;29.98;7.75;;;16.30;99.90;;;;;;5125763;27;20391;-86
2023/10/09 10:00:42;;;;;;;24.98;6.32;;;16.40;99.90;;;;;;5129555;27;20028;-87
2023/10/09 10:03:16;;;;;;;25.03;6.23;;;16.50;99.90;;;;;;5125554;27;20031;-90
2023/10/09 10:05:46;;;;;;;30.97;9.07;;;16.60;99.90;;;;;;5123485;27;20491;-91
2023/10/09 10:08:19;;;;;;;31.50;6.43;;;16.60;99.90;;;;;;5116622;27;20031;-90
2023/10/09 10:10:49;;;;;;;21.38;5.97;;;16.60;99.90;;;;;;5116918;27;20391;-94
2023/10/09 10:13:23;;;;;;;25.83;6.53;;;16.60;99.90;;;;;;5109903;27;20162;-92
2023/10/09 10:15:58;;;;;;;22.40;7.18;;;16.70;99.90;;;;;;5125976;27;20031;-93
2023/10/09 10:18:24;;;;;;;30.23;7.82;;;16.60;99.90;;;;;;5113704;27;20379;-93
2023/10/09 10:21:14;;;;;;;34.63;8.85;;;16.60;99.90;;;;;;5122057;27;20459;-89
2023/10/09 10:23:40;;;;;;;28.92;7.57;;;16.60;99.90;;;;;;5127819;27;20015;-91
2023/10/09 10:26:21;;;;;;;26.83;6.47;;;16.60;99.90;;;;;;5123410;27;20020;-91
2023/10/09 10:29:22;;;;;;;25.70;7.45;;;16.60;99.90;;;;;;5121924;27;20472;-93
2023/10/09 10:32:08;;;;;;;24.27;6.20;;;16.60;99.90;;;;;;5120746;27;20130;-92
2023/10/09 10:35:06;;;;;;;22.58;5.70;;;16.60;99.90;;;;;;5116160;27;20555;-91
2023/10/09 10:38:14;;;;;;;26.23;6.03;;;16.50;99.90;;;;;;5122747;27;20126;-90
2023/10/09 10:40:45;;;;;;;31.73;6.35;;;16.50;99.90;;;;;;5113450;27;20087;-93
2023/10/09 10:46:24;;;;;;;17.95;4.72;;;16.50;99.90;;;;;;5124678;27;20083;-91
2023/10/09 10:48:59;;;;;;;19.63;5.53;;;16.50;99.90;;;;;;5119602;27;20027;-92
2023/10/09 10:51:37;;;;;;;23.73;6.63;;;16.40;99.90;;;;;;5109839;27;20035;-91
2023/10/09 10:55:17;;;;;;;25.45;7.53;;;16.20;99.90;;;;;;5119206;27;20039;-91
2023/10/09 10:56:51;;;;;;;20.65;8.30;;;16.20;99.90;;;;;;5115291;27;20038;-90
2023/10/09 10:59:24;;;;;;;24.65;9.13;;;16.10;99.90;;;;;;5127399;27;20027;-92
2023/10/09 11:01:53;;;;;;;19.02;8.38;;;16.00;99.90;;;;;;5123554;27;20031;-95
2023/10/09 11:10:26;;;;;;;21.60;9.80;;;15.70;99.90;;;;;;5131398;27;20058;-96
2023/10/09 11:13:25;;;;;;;;;;;15.70;99.90;;;;;;5127592;27;20084;-93
2023/10/09 11:15:57;;;;;;;21.95;9.60;;;15.60;99.90;;;;;;5125364;27;20201;-90
2023/10/09 11:18:27;;;;;;;27.98;10.18;;;15.50;99.90;;;;;;5121526;27;20034;-90
2023/10/09 11:23:36;;;;;;;31.92;11.68;;;15.40;99.90;;;;;;5125642;27;20050;-91
2023/10/09 11:32:05;;;;;;;;;;;15.20;99.90;;;;;;5125944;27;20043;-94
2023/10/09 11:34:32;;;;;;;41.22;16.00;;;15.20;99.90;;;;;;5129263;27;19907;-94
2023/10/09 11:37:15;;;;;;;29.83;15.00;;;15.20;99.90;;;;;;5132727;27;20118;-94
2023/10/09 11:39:51;;;;;;;29.35;11.82;;;15.20;99.90;;;;;;5129666;27;20035;-95
2023/10/09 11:42:35;;;;;;;27.67;13.52;;;15.20;99.90;;;;;;5130826;27;20054;-94
2023/10/09 11:45:19;;;;;;;20.95;9.80;;;15.20;99.90;;;;;;5114276;27;20035;-96
2023/10/09 11:47:58;;;;;;;20.77;9.95;;;15.20;99.90;;;;;;5125099;27;20031;-95
2023/10/09 11:51:18;;;;;;;29.00;9.82;;;15.20;99.90;;;;;;5122170;27;20047;-94
2023/10/09 11:53:48;;;;;;;23.77;9.38;;;15.20;99.90;;;;;;5132446;27;20038;-94
2023/10/09 11:56:16;;;;;;;20.60;8.23;;;15.30;99.90;;;;;;5130664;27;20031;-96
2023/10/09 11:58:42;;;;;;;32.13;8.32;;;15.30;99.90;;;;;;5124278;27;20390;-94
2023/10/09 12:01:17;;;;;;;17.30;8.25;;;15.30;99.90;;;;;;5128914;27;20050;-92
2023/10/09 12:03:44;;;;;;;22.13;8.77;;;15.30;99.90;;;;;;5129974;27;20156;-94
2023/10/09 12:06:12;;;;;;;25.10;8.15;;;15.30;99.90;;;;;;5124967;27;20037;-96
2023/10/09 12:08:41;;;;;;;23.77;8.32;;;15.30;99.90;;;;;;5111901;27;20030;-95
2023/10/09 12:11:12;;;;;;;22.42;8.82;;;15.30;99.90;;;;;;5126836;27;20040;-96
2023/10/09 12:13:39;;;;;;;18.80;7.32;;;15.40;99.90;;;;;;5118477;27;20027;-94
2023/10/09 12:16:11;;;;;;;25.17;7.82;;;15.30;99.90;;;;;;5119486;27;20107;-96
2023/10/09 12:18:39;;;;;;;19.80;8.32;;;15.30;99.90;;;;;;5123849;27;20136;-96
2023/10/09 12:21:06;;;;;;;20.90;8.68;;;15.30;99.90;;;;;;5128771;27;20082;-96
2023/10/09 12:23:40;;;;;;;17.60;7.88;;;15.30;99.90;;;;;;5130003;27;20084;-94
2023/10/09 12:26:14;;;;;;;21.52;9.38;;;15.30;99.90;;;;;;5109736;27;20103;-96
2023/10/09 12:28:50;;;;;;;29.70;8.55;;;15.30;99.90;;;;;;5123136;27;20418;-96
2023/10/09 12:31:19;;;;;;;24.42;8.68;;;15.30;99.90;;;;;;5129687;27;20047;-96
2023/10/09 12:33:50;;;;;;;21.42;9.50;;;15.30;99.90;;;;;;5122065;27;20031;-96
2023/10/09 12:36:21;;;;;;;18.85;9.07;;;15.30;99.90;;;;;;5128587;27;20053;-92
2023/10/09 12:38:52;;;;;;;23.60;9.45;;;15.30;99.90;;;;;;5128530;27;20035;-95
2023/10/09 12:41:20;;;;;;;25.98;9.70;;;15.30;99.90;;;;;;5112515;27;20027;-96
2023/10/09 12:43:47;;;;;;;24.40;9.80;;;15.40;99.90;;;;;;5124377;27;20056;-93
2023/10/09 12:46:16;;;;;;;23.35;10.43;;;15.30;99.90;;;;;;5111860;27;20027;-95
2023/10/09 12:48:47;;;;;;;25.08;10.50;;;15.40;99.90;;;;;;5129542;27;20034;-96
2023/10/09 12:51:17;;;;;;;28.60;10.23;;;15.40;99.90;;;;;;5133480;27;20035;-95
2023/10/09 12:53:43;;;;;;;19.90;8.65;;;15.30;99.90;;;;;;5133572;27;20023;-94
2023/10/09 12:56:11;;;;;;;32.20;10.63;;;15.40;99.90;;;;;;5132374;27;20179;-96
2023/10/09 12:58:52;;;;;;;23.90;10.13;;;15.40;99.90;;;;;;5132874;27;20032;-95
2023/10/09 13:01:19;;;;;;;17.38;8.60;;;15.40;99.90;;;;;;5138828;27;20023;-95
2023/10/09 13:03:48;;;;;;;20.67;8.70;;;15.30;99.90;;;;;;5133216;27;20084;-96
2023/10/09 13:06:15;;;;;;;21.15;7.00;;;15.30;99.90;;;;;;5134545;27;20522;-96
2023/10/09 13:08:42;;;;;;;14.43;7.03;;;15.30;99.90;;;;;;5118864;27;20019;-95
2023/10/09 13:11:16;;;;;;;17.90;7.25;;;15.40;99.90;;;;;;5138810;27;20062;-96
2023/10/09 13:13:43;;;;;;;19.92;7.45;;;15.40;99.90;;;;;;5139186;27;20022;-96
2023/10/09 13:16:24;;;;;;;18.35;8.15;;;15.40;99.90;;;;;;5133944;27;20126;-96
2023/10/09 13:18:51;;;;;;;13.43;6.57;;;15.30;99.90;;;;;;5139850;27;20058;-93
2023/10/09 13:21:22;;;;;;;14.98;7.63;;;15.30;99.90;;;;;;5210657;23;20041;-95
2023/10/09 13:23:53;;;;;;;15.77;7.35;;;15.30;99.90;;;;;;5082821;28;20029;-93
2023/10/09 13:26:25;;;;;;;15.98;6.57;;;15.30;99.90;;;;;;5078182;28;20024;-95
2023/10/09 13:28:52;;;;;;;14.25;6.97;;;15.30;99.90;;;;;;5083889;28;20031;-92
2023/10/09 13:31:20;;;;;;;13.27;6.75;;;15.30;99.90;;;;;;5083279;28;20064;-95
2023/10/09 13:33:47;;;;;;;19.83;8.10;;;15.30;99.90;;;;;;5060080;28;20088;-96
2023/10/09 13:36:33;;;;;;;15.68;7.95;;;15.30;99.90;;;;;;5074162;28;20028;-96
2023/10/09 13:39:24;;;;;;;14.95;8.30;;;15.30;99.90;;;;;;5067277;28;20050;-95
2023/10/09 13:41:58;;;;;;;18.45;8.95;;;15.30;99.90;;;;;;5072424;28;20036;-94
2023/10/09 13:44:32;;;;;;;13.43;7.65;;;15.30;99.90;;;;;;5064669;28;20039;-95
2023/10/09 13:47:05;;;;;;;13.77;7.80;;;15.30;99.90;;;;;;5071589;28;20492;-93
2023/10/09 13:49:32;;;;;;;11.60;7.00;;;15.30;99.90;;;;;;5072824;28;20291;-92
2023/10/09 13:51:59;;;;;;;17.00;7.47;;;15.30;99.90;;;;;;5066308;28;20042;-94
2023/10/09 13:56:55;;;;;;;17.15;8.68;;;15.30;99.90;;;;;;5086368;28;20557;-95
2023/10/09 13:59:27;;;;;;;16.52;8.73;;;15.40;99.90;;;;;;5087497;28;20029;-96
2023/10/09 14:01:59;;;;;;;15.98;9.20;;;15.40;99.90;;;;;;5425210;22;20032;-96
2023/10/09 14:04:26;;;;;;;17.02;9.60;;;15.40;99.90;;;;;;5585268;22;20115;-96
2023/10/09 14:06:58;;;;;;;20.60;8.50;;;15.40;99.90;;;;;;5259085;22;20020;-95
2023/10/09 14:09:54;;;;;;;11.48;7.38;;;15.50;99.90;;;;;;5160221;22;20020;-95
2023/10/09 14:12:21;;;;;;;;;;;15.40;99.90;;;;;;5378553;22;20078;-93
2023/10/09 14:14:47;;;;;;;17.42;7.38;;;15.40;99.90;;;;;;5104650;22;19922;-96
2023/10/09 14:17:27;;;;;;;14.50;7.47;;;15.40;99.90;;;;;;5006702;28;20102;-96
2023/10/09 14:19:54;;;;;;;18.50;7.97;;;15.40;99.90;;;;;;5001967;28;20030;-96
2023/10/09 14:22:24;;;;;;;13.10;6.85;;;15.40;99.90;;;;;;4993674;28;20040;-96
2023/10/09 14:24:55;;;;;;;13.07;6.50;;;15.40;99.90;;;;;;4991506;28;20018;-96
2023/10/09 14:27:25;;;;;;;10.30;5.43;;;15.40;99.90;;;;;;5005291;28;20386;-96
2023/10/09 14:29:51;;;;;;;8.27;4.22;;;15.50;99.90;;;;;;5002262;28;20086;-96
2023/10/09 14:32:17;;;;;;;9.40;5.15;;;15.50;99.90;;;;;;5002861;28;20049;-92
2023/10/09 14:34:49;;;;;;;8.45;3.97;;;15.40;99.90;;;;;;4999369;28;20378;-95
2023/10/09 14:37:19;;;;;;;20.15;5.38;;;15.40;99.90;;;;;;4998588;28;20065;-93
2023/10/09 14:39:51;;;;;;;11.55;4.25;;;15.40;99.90;;;;;;4997608;28;20105;-94
2023/10/09 14:42:17;;;;;;;5.40;3.58;;;15.40;99.90;;;;;;5000730;28;20030;-95
2023/10/09 14:44:47;;;;;;;7.40;4.13;;;15.40;99.90;;;;;;4998827;28;20033;-94
2023/10/09 14:47:20;;;;;;;5.30;2.85;;;15.30;99.90;;;;;;4990807;28;20057;-95
2023/10/09 14:49:49;;;;;;;8.82;3.70;;;15.40;99.90;;;;;;5001657;28;20102;-92
2023/10/09 14:52:17;;;;;;;5.03;3.58;;;15.40;99.90;;;;;;4997924;28;20050;-94
2023/10/09 14:54:44;;;;;;;3.38;2.70;;;15.40;99.90;;;;;;5001421;28;20553;-93
2023/10/09 14:57:11;;;;;;;4.88;3.10;;;15.30;99.90;;;;;;5004585;28;20483;-94
2023/10/09 14:59:37;;;;;;;7.15;3.03;;;15.30;99.90;;;;;;4997675;28;20447;-93
2023/10/09 15:02:02;;;;;;;4.15;2.97;;;15.30;99.90;;;;;;4993213;28;20033;-94
2023/10/09 15:04:28;;;;;;;3.50;2.55;;;15.30;99.90;;;;;;4995084;28;20036;-88